Time;durP1;ratioP1;P1;durP2;ratioP2;P2;SDS_P1;SDS_P2;PMS_P1;PMS_P2;Temp;Humidity;BMP_temperature;BMP_pressure;BME280_temperature;BME280_humidity;BME280_pressure;Samples;Min_cycle;Max_cycle;Signal;HPM_P1;HPM_P2
2022/06/26 00:00:04;;;;;;;0.55;0.50;;;;;;;;;;5027333;28;20036;-80
2022/06/26 00:02:30;;;;;;;1.48;1.13;;;;;;;;;;5024154;28;20450;-80
2022/06/26 00:04:55;;;;;;;0.50;0.50;;;;;;;;;;5023601;28;20032;-81
2022/06/26 00:07:21;;;;;;;0.40;0.40;;;;;;;;;;5027076;28;20108;-81
2022/06/26 00:09:46;;;;;;;1.08;0.60;;;;;;;;;;5025010;28;20536;-81
2022/06/26 00:12:12;;;;;;;0.88;0.85;;;;;;;;;;5026616;28;20021;-81
2022/06/26 00:14:39;;;;;;;1.25;1.15;;;;;;;;;;5028429;28;20045;-81
2022/06/26 00:17:05;;;;;;;1.65;1.55;;;;;;;;;;5016400;28;20038;-81
2022/06/26 00:19:33;;;;;;;3.65;1.73;;;;;;;;;;5017145;28;20034;-82
2022/06/26 00:21:58;;;;;;;2.88;1.50;;;;;;;;;;5017249;28;20030;-80
2022/06/26 00:24:29;;;;;;;3.38;1.77;;;;;;;;;;5015842;28;20018;-82
2022/06/26 00:26:56;;;;;;;3.15;2.28;;;;;;;;;;5015846;28;20514;-82
2022/06/26 00:29:24;;;;;;;5.28;2.67;;;;;;;;;;5001901;28;20452;-81
2022/06/26 00:31:52;;;;;;;3.90;2.58;;;;;;;;;;5016128;28;20071;-80
2022/06/26 00:34:22;;;;;;;5.15;1.42;;;;;;;;;;5015657;28;20119;-81
2022/06/26 00:36:49;;;;;;;3.08;2.60;;;;;;;;;;5027296;28;20025;-81
2022/06/26 00:39:15;;;;;;;1.50;1.38;;;;;;;;;;5036530;28;20087;-81
2022/06/26 00:41:40;;;;;;;1.88;1.67;;;;;;;;;;5008601;28;20355;-81
2022/06/26 00:44:18;;;;;;;2.75;2.38;;;;;;;;;;5025268;28;20029;-81
2022/06/26 00:46:45;;;;;;;0.95;0.90;;;;;;;;;;5020131;28;20022;-81
2022/06/26 00:49:13;;;;;;;1.77;1.45;;;;;;;;;;5026885;28;20156;-81
2022/06/26 00:51:46;;;;;;;1.67;1.42;;;;;;;;;;5020470;28;20124;-82
2022/06/26 00:54:14;;;;;;;3.03;2.03;;;;;;;;;;5031116;28;20025;-82
2022/06/26 00:56:40;;;;;;;3.80;1.90;;;;;;;;;;5015631;28;20109;-82
2022/06/26 00:59:09;;;;;;;0.88;0.77;;;;;;;;;;5018358;28;20180;-80
2022/06/26 01:01:35;;;;;;;1.05;0.80;;;;;;;;;;5028512;28;20414;-81
2022/06/26 01:04:04;;;;;;;1.55;1.27;;;;;;;;;;5025806;28;20103;-81
2022/06/26 01:06:29;;;;;;;0.80;0.80;;;;;;;;;;5025266;28;20029;-80
2022/06/26 01:08:56;;;;;;;1.77;1.30;;;;;;;;;;5023777;28;20499;-81
2022/06/26 01:11:24;;;;;;;0.90;0.65;;;;;;;;;;5021024;28;20033;-81
2022/06/26 01:13:54;;;;;;;2.58;1.92;;;;;;;;;;5025433;28;20116;-79
2022/06/26 01:16:20;;;;;;;2.13;1.35;;;;;;;;;;5023417;28;20029;-79
2022/06/26 01:18:55;;;;;;;0.60;0.60;;;;;;;;;;5011305;28;20351;-77
2022/06/26 01:21:24;;;;;;;3.10;1.95;;;;;;;;;;5013353;28;20022;-80
2022/06/26 01:23:53;;;;;;;1.27;0.77;;;;;;;;;;5011941;28;20030;-81
2022/06/26 01:26:20;;;;;;;1.98;0.85;;;;;;;;;;5013586;28;20026;-80
2022/06/26 01:28:45;;;;;;;2.33;1.33;;;;;;;;;;5016435;28;20022;-79
2022/06/26 01:31:10;;;;;;;1.92;0.98;;;;;;;;;;5013866;28;20418;-80
2022/06/26 01:33:36;;;;;;;0.93;0.93;;;;;;;;;;5014721;28;20029;-80
2022/06/26 01:36:07;;;;;;;2.88;1.75;;;;;;;;;;5014030;28;20026;-80
2022/06/26 01:38:35;;;;;;;1.52;1.13;;;;;;;;;;5012247;28;20036;-80
2022/06/26 01:41:03;;;;;;;2.45;2.10;;;;;;;;;;5014415;28;20022;-81
2022/06/26 01:43:30;;;;;;;1.13;1.02;;;;;;;;;;5019543;28;20044;-80
2022/06/26 01:45:56;;;;;;;3.97;1.58;;;;;;;;;;5014620;28;20033;-81
2022/06/26 01:48:24;;;;;;;0.47;0.40;;;;;;;;;;5001468;28;20021;-80
2022/06/26 01:50:53;;;;;;;0.98;0.93;;;;;;;;;;5035386;28;20180;-80
2022/06/26 01:53:21;;;;;;;4.85;1.83;;;;;;;;;;5006612;28;20032;-81
2022/06/26 01:55:48;;;;;;;1.40;1.30;;;;;;;;;;5026683;28;20029;-81
2022/06/26 01:58:14;;;;;;;1.88;1.27;;;;;;;;;;5022920;28;20349;-81
2022/06/26 02:00:46;;;;;;;1.38;1.27;;;;;;;;;;4995642;28;20045;-81
2022/06/26 02:03:12;;;;;;;2.05;1.20;;;;;;;;;;5013725;28;20101;-81
2022/06/26 02:05:38;;;;;;;2.92;1.60;;;;;;;;;;5014267;28;20025;-81
2022/06/26 02:08:04;;;;;;;2.13;1.48;;;;;;;;;;5010495;28;20157;-81
2022/06/26 02:15:59;;;;;;;1.65;1.20;;;;;;;;;;5020861;28;20131;-81
2022/06/26 02:18:28;;;;;;;2.38;2.17;;;;;;;;;;5034714;28;20044;-81
2022/06/26 02:20:53;;;;;;;2.33;1.77;;;;;;;;;;5014492;28;20083;-81
2022/06/26 02:23:22;;;;;;;2.00;1.30;;;;;;;;;;5021728;28;20104;-80
2022/06/26 02:25:48;;;;;;;0.80;0.80;;;;;;;;;;5034642;28;20021;-81
2022/06/26 02:28:13;;;;;;;2.72;1.60;;;;;;;;;;5025720;28;20337;-81
2022/06/26 02:30:39;;;;;;;1.40;1.15;;;;;;;;;;5015235;28;20029;-88
2022/06/26 02:33:19;;;;;;;1.13;0.80;;;;;;;;;;5013550;28;20033;-83
2022/06/26 02:35:48;;;;;;;1.02;0.85;;;;;;;;;;4998326;28;20325;-84
2022/06/26 02:38:15;;;;;;;1.77;1.33;;;;;;;;;;5002123;28;20033;-83
2022/06/26 02:40:41;;;;;;;1.77;1.23;;;;;;;;;;4991635;28;20049;-84
2022/06/26 02:43:07;;;;;;;1.77;1.63;;;;;;;;;;5014738;28;20511;-82
2022/06/26 02:45:32;;;;;;;0.90;0.90;;;;;;;;;;5015852;28;20117;-82
2022/06/26 02:47:58;;;;;;;1.80;0.52;;;;;;;;;;4987711;28;20023;-85
2022/06/26 02:50:23;;;;;;;3.50;1.25;;;;;;;;;;5009674;28;20496;-84
2022/06/26 02:52:53;;;;;;;0.70;0.68;;;;;;;;;;5018080;28;20092;-85
2022/06/26 02:55:19;;;;;;;1.02;0.93;;;;;;;;;;5018375;28;20390;-82
2022/06/26 02:57:44;;;;;;;0.82;0.68;;;;;;;;;;5014350;28;20018;-83
2022/06/26 03:00:12;;;;;;;1.27;1.02;;;;;;;;;;5012967;28;20092;-85
2022/06/26 03:02:37;;;;;;;1.13;0.88;;;;;;;;;;5021563;28;20037;-84
2022/06/26 03:05:05;;;;;;;1.38;1.27;;;;;;;;;;5013669;28;20124;-84
2022/06/26 03:07:30;;;;;;;0.82;0.82;;;;;;;;;;5014296;28;20434;-85
2022/06/26 03:09:56;;;;;;;1.52;1.42;;;;;;;;;;5016969;28;20037;-85
2022/06/26 03:12:24;;;;;;;1.08;1.00;;;;;;;;;;5027844;28;20120;-85
2022/06/26 03:14:49;;;;;;;3.40;2.17;;;;;;;;;;5018575;28;20112;-84
2022/06/26 03:17:15;;;;;;;0.40;0.40;;;;;;;;;;5014776;28;20113;-84
2022/06/26 03:19:43;;;;;;;2.60;1.48;;;;;;;;;;5014761;28;20026;-84
2022/06/26 03:22:08;;;;;;;1.92;0.85;;;;;;;;;;5012602;28;20025;-84
2022/06/26 03:24:34;;;;;;;2.13;1.40;;;;;;;;;;5015314;28;20026;-83
2022/06/26 03:26:59;;;;;;;1.77;1.67;;;;;;;;;;5014271;28;20029;-83
2022/06/26 03:29:27;;;;;;;1.15;1.08;;;;;;;;;;5015501;28;20041;-83
2022/06/26 03:31:53;;;;;;;1.48;1.35;;;;;;;;;;5039522;28;20033;-84
2022/06/26 03:34:21;;;;;;;0.80;0.80;;;;;;;;;;5035497;28;20424;-81
2022/06/26 03:36:47;;;;;;;1.45;1.08;;;;;;;;;;5026682;28;20029;-85
2022/06/26 03:39:12;;;;;;;2.08;1.30;;;;;;;;;;5026532;28;20029;-84
2022/06/26 03:41:40;;;;;;;0.73;0.73;;;;;;;;;;5016186;28;20507;-83
2022/06/26 03:44:06;;;;;;;1.73;1.50;;;;;;;;;;5016138;28;20115;-83
2022/06/26 03:46:32;;;;;;;1.42;1.15;;;;;;;;;;5014195;28;20033;-84
2022/06/26 03:49:02;;;;;;;2.88;2.05;;;;;;;;;;5012627;28;20022;-84
2022/06/26 03:51:28;;;;;;;1.42;1.33;;;;;;;;;;5016534;28;20045;-83
2022/06/26 03:53:55;;;;;;;2.53;1.00;;;;;;;;;;5014921;28;20021;-83
2022/06/26 03:56:21;;;;;;;1.75;0.85;;;;;;;;;;5016992;28;20025;-85
2022/06/26 03:58:46;;;;;;;1.52;1.15;;;;;;;;;;5014587;28;20044;-84
2022/06/26 04:01:14;;;;;;;1.73;1.10;;;;;;;;;;5009638;28;20061;-82
2022/06/26 04:03:44;;;;;;;1.42;1.20;;;;;;;;;;5014851;28;20030;-84
2022/06/26 04:06:10;;;;;;;3.95;1.63;;;;;;;;;;5018900;28;20022;-83
2022/06/26 04:08:35;;;;;;;1.27;1.17;;;;;;;;;;5013732;28;20105;-84
2022/06/26 04:11:03;;;;;;;1.10;1.00;;;;;;;;;;5032651;28;20059;-81
2022/06/26 04:13:32;;;;;;;1.73;1.10;;;;;;;;;;5024788;28;20040;-84
2022/06/26 04:15:58;;;;;;;1.70;1.60;;;;;;;;;;5016091;28;20367;-83
2022/06/26 04:18:24;;;;;;;2.20;1.58;;;;;;;;;;5024490;28;20029;-85
2022/06/26 04:20:49;;;;;;;2.90;1.17;;;;;;;;;;5013747;28;20042;-85
2022/06/26 04:23:14;;;;;;;1.73;1.63;;;;;;;;;;5015091;28;20083;-84
2022/06/26 04:25:40;;;;;;;1.60;1.13;;;;;;;;;;5018420;28;20495;-83
2022/06/26 04:28:06;;;;;;;1.25;1.15;;;;;;;;;;5015076;28;20030;-84
2022/06/26 04:30:39;;;;;;;1.80;1.25;;;;;;;;;;4997868;28;20367;-84
2022/06/26 04:33:05;;;;;;;1.48;1.33;;;;;;;;;;5009257;28;20049;-85
2022/06/26 04:35:31;;;;;;;1.38;1.23;;;;;;;;;;5014860;28;20435;-84
2022/06/26 04:37:56;;;;;;;0.95;0.70;;;;;;;;;;5009091;28;20021;-83
2022/06/26 04:40:24;;;;;;;1.30;1.20;;;;;;;;;;4977187;28;1112096;-84
2022/06/26 04:42:49;;;;;;;2.25;0.77;;;;;;;;;;5016597;28;20525;-84
2022/06/26 04:45:15;;;;;;;1.05;0.90;;;;;;;;;;5016639;28;20108;-86
2022/06/26 04:47:40;;;;;;;1.25;1.15;;;;;;;;;;5004365;28;20065;-81
2022/06/26 04:50:07;;;;;;;0.85;0.85;;;;;;;;;;5015243;28;20107;-83
2022/06/26 04:52:37;;;;;;;0.40;0.40;;;;;;;;;;5015061;28;20038;-82
2022/06/26 04:55:03;;;;;;;0.40;0.40;;;;;;;;;;5015755;28;20423;-82
2022/06/26 04:57:31;;;;;;;1.42;0.70;;;;;;;;;;5019352;28;20048;-84
2022/06/26 04:59:56;;;;;;;7.93;1.33;;;;;;;;;;5016314;28;20026;-83
2022/06/26 05:02:22;;;;;;;1.17;1.08;;;;;;;;;;5013538;28;20030;-84
2022/06/26 05:04:47;;;;;;;3.10;1.75;;;;;;;;;;5018577;28;20018;-84
2022/06/26 05:07:14;;;;;;;7.60;1.95;;;;;;;;;;5015276;28;20424;-83
2022/06/26 05:09:39;;;;;;;1.88;1.52;;;;;;;;;;5022024;28;20032;-82
2022/06/26 05:12:07;;;;;;;1.27;1.17;;;;;;;;;;5026096;28;20040;-83
2022/06/26 05:14:35;;;;;;;1.75;1.10;;;;;;;;;;5021703;28;20375;-83
2022/06/26 05:17:04;;;;;;;0.77;0.73;;;;;;;;;;5018391;28;20030;-83
2022/06/26 05:19:32;;;;;;;0.75;0.73;;;;;;;;;;5017967;28;20034;-83
2022/06/26 05:22:02;;;;;;;3.88;1.27;;;;;;;;;;5018649;28;20026;-84
2022/06/26 05:24:29;;;;;;;0.82;0.82;;;;;;;;;;5014908;28;20026;-82
2022/06/26 05:26:56;;;;;;;1.15;1.02;;;;;;;;;;5030747;28;20022;-83
2022/06/26 05:29:22;;;;;;;1.30;1.20;;;;;;;;;;5016433;28;20097;-85
2022/06/26 05:31:50;;;;;;;1.70;1.55;;;;;;;;;;5017406;28;20048;-82
2022/06/26 05:34:16;;;;;;;2.60;1.88;;;;;;;;;;5014941;28;20038;-82
2022/06/26 05:36:46;;;;;;;2.45;1.30;;;;;;;;;;5014838;28;20038;-83
2022/06/26 05:39:11;;;;;;;1.95;1.38;;;;;;;;;;5015619;28;20033;-82
2022/06/26 05:41:37;;;;;;;0.80;0.77;;;;;;;;;;5020721;28;20029;-84
2022/06/26 05:44:02;;;;;;;0.82;0.60;;;;;;;;;;5014926;28;20060;-82
2022/06/26 05:46:28;;;;;;;0.93;0.70;;;;;;;;;;5016257;28;20077;-83
2022/06/26 05:48:58;;;;;;;1.30;1.20;;;;;;;;;;5014589;28;20361;-83
2022/06/26 05:51:23;;;;;;;1.52;0.90;;;;;;;;;;5014924;28;20080;-82
2022/06/26 05:53:51;;;;;;;1.90;1.40;;;;;;;;;;5027995;28;20064;-84
2022/06/26 05:56:19;;;;;;;0.32;0.32;;;;;;;;;;5002434;28;20125;-84
2022/06/26 05:58:44;;;;;;;0.93;0.93;;;;;;;;;;5018837;28;20034;-85
2022/06/26 06:01:09;;;;;;;0.60;0.60;;;;;;;;;;5012551;28;20097;-83
2022/06/26 06:03:35;;;;;;;1.73;1.40;;;;;;;;;;5012631;28;20025;-83
2022/06/26 06:06:00;;;;;;;0.98;0.88;;;;;;;;;;4999928;28;20336;-84
2022/06/26 06:08:28;;;;;;;2.00;1.33;;;;;;;;;;5007777;28;20025;-83
2022/06/26 06:10:55;;;;;;;0.77;0.70;;;;;;;;;;5015969;28;20026;-81
2022/06/26 06:13:23;;;;;;;1.33;0.77;;;;;;;;;;5016346;28;20481;-83
2022/06/26 06:15:48;;;;;;;0.80;0.73;;;;;;;;;;5019863;28;20492;-82
2022/06/26 06:18:14;;;;;;;0.70;0.70;;;;;;;;;;5012943;28;20046;-83
2022/06/26 06:20:39;;;;;;;1.45;0.93;;;;;;;;;;5015212;28;20041;-83
2022/06/26 06:23:06;;;;;;;1.92;1.77;;;;;;;;;;5013144;28;20450;-82
2022/06/26 06:25:32;;;;;;;2.05;0.73;;;;;;;;;;5001158;28;20092;-81
2022/06/26 06:28:00;;;;;;;3.03;1.48;;;;;;;;;;5013597;28;20363;-83
2022/06/26 06:30:30;;;;;;;2.40;1.38;;;;;;;;;;5015201;28;20033;-83
2022/06/26 06:32:57;;;;;;;2.22;1.95;;;;;;;;;;4999174;28;20037;-83
2022/06/26 06:35:23;;;;;;;1.98;1.73;;;;;;;;;;5020349;28;20531;-84
2022/06/26 06:37:48;;;;;;;4.10;2.28;;;;;;;;;;5014644;28;20061;-82
2022/06/26 06:40:14;;;;;;;2.22;2.05;;;;;;;;;;5018242;28;20045;-83
2022/06/26 06:42:43;;;;;;;3.65;2.20;;;;;;;;;;5014124;28;20025;-82
2022/06/26 06:45:09;;;;;;;2.35;1.65;;;;;;;;;;5027977;28;20037;-84
2022/06/26 06:47:37;;;;;;;2.45;1.75;;;;;;;;;;5015824;28;20394;-83
2022/06/26 06:50:06;;;;;;;8.10;3.35;;;;;;;;;;5014620;28;20402;-83
2022/06/26 06:52:32;;;;;;;1.98;1.40;;;;;;;;;;5016545;28;20025;-83
2022/06/26 06:54:57;;;;;;;3.33;2.28;;;;;;;;;;5013885;28;20432;-83
2022/06/26 06:57:23;;;;;;;2.42;1.02;;;;;;;;;;5013746;28;20025;-83
2022/06/26 06:59:48;;;;;;;2.05;1.35;;;;;;;;;;5027249;28;20106;-83
2022/06/26 07:02:16;;;;;;;1.20;1.10;;;;;;;;;;5023136;28;20025;-83
2022/06/26 07:04:43;;;;;;;2.53;2.00;;;;;;;;;;5016980;28;20029;-83
2022/06/26 07:07:09;;;;;;;5.25;2.13;;;;;;;;;;5017776;28;20451;-85
2022/06/26 07:09:39;;;;;;;1.90;1.58;;;;;;;;;;5013372;28;20026;-84
2022/06/26 07:12:07;;;;;;;2.22;1.30;;;;;;;;;;5014577;28;20490;-84
2022/06/26 07:14:35;;;;;;;1.17;1.08;;;;;;;;;;5014469;28;20033;-82
2022/06/26 07:17:02;;;;;;;1.00;0.98;;;;;;;;;;5013655;28;20502;-83
2022/06/26 07:19:27;;;;;;;0.88;0.88;;;;;;;;;;5012801;28;20030;-84
2022/06/26 07:21:56;;;;;;;0.85;0.85;;;;;;;;;;5012686;28;20532;-82
2022/06/26 07:24:21;;;;;;;3.97;0.75;;;;;;;;;;4998847;28;20065;-81
2022/06/26 07:26:47;;;;;;;1.02;0.70;;;;;;;;;;5020875;28;20063;-83
2022/06/26 07:29:12;;;;;;;1.15;0.93;;;;;;;;;;5012931;28;20037;-83
2022/06/26 07:31:38;;;;;;;1.35;0.98;;;;;;;;;;5012013;28;20021;-84
2022/06/26 07:34:12;;;;;;;0.45;0.30;;;;;;;;;;5013012;28;20030;-83
2022/06/26 07:36:41;;;;;;;0.35;0.35;;;;;;;;;;5013130;28;20022;-83
2022/06/26 07:39:07;;;;;;;0.50;0.50;;;;;;;;;;5008836;28;20359;-83
2022/06/26 07:41:33;;;;;;;1.15;1.10;;;;;;;;;;5014962;28;20030;-83
2022/06/26 07:43:58;;;;;;;0.25;0.25;;;;;;;;;;5014701;28;20080;-83
2022/06/26 07:46:24;;;;;;;0.50;0.50;;;;;;;;;;5015994;28;20030;-84
2022/06/26 07:48:51;;;;;;;0.50;0.50;;;;;;;;;;5011870;28;20026;-84
2022/06/26 07:51:19;;;;;;;0.25;0.25;;;;;;;;;;5011998;28;20026;-85
2022/06/26 07:53:45;;;;;;;0.50;0.50;;;;;;;;;;5012268;28;20115;-85
2022/06/26 07:56:13;;;;;;;2.00;0.80;;;;;;;;;;5010747;28;20030;-83
2022/06/26 07:58:39;;;;;;;0.47;0.38;;;;;;;;;;5024244;28;20037;-83
2022/06/26 08:01:04;;;;;;;0.45;0.43;;;;;;;;;;5012801;28;20344;-84
2022/06/26 08:03:30;;;;;;;0.15;0.15;;;;;;;;;;5012385;28;20468;-84
2022/06/26 08:05:58;;;;;;;0.28;0.28;;;;;;;;;;5012886;28;20045;-81
2022/06/26 08:08:23;;;;;;;0.45;0.45;;;;;;;;;;5013519;28;20030;-85
2022/06/26 08:10:49;;;;;;;0.35;0.30;;;;;;;;;;5010605;28;20505;-86
2022/06/26 08:13:14;;;;;;;0.15;0.15;;;;;;;;;;5014806;28;20606;-85
2022/06/26 08:15:40;;;;;;;0.10;0.10;;;;;;;;;;5016985;28;20344;-83
2022/06/26 08:18:07;;;;;;;0.50;0.38;;;;;;;;;;5017333;28;20030;-84
2022/06/26 08:20:32;;;;;;;0.30;0.30;;;;;;;;;;5017542;28;20026;-84
2022/06/26 08:22:58;;;;;;;0.88;0.70;;;;;;;;;;5014556;28;20064;-88
2022/06/26 08:25:26;;;;;;;0.50;0.50;;;;;;;;;;5013745;28;20034;-88
2022/06/26 08:27:51;;;;;;;0.28;0.28;;;;;;;;;;5014561;28;20447;-85
2022/06/26 08:30:17;;;;;;;0.20;0.20;;;;;;;;;;5017422;28;20033;-87
2022/06/26 08:32:42;;;;;;;0.70;0.63;;;;;;;;;;5016107;28;20458;-84
2022/06/26 08:35:10;;;;;;;0.50;0.40;;;;;;;;;;5015036;28;20041;-89
2022/06/26 08:37:35;;;;;;;0.38;0.38;;;;;;;;;;5020799;28;20164;-87
2022/06/26 08:40:00;;;;;;;0.77;0.77;;;;;;;;;;5014027;28;20045;-84
2022/06/26 08:42:26;;;;;;;3.90;0.60;;;;;;;;;;5012141;28;20026;-85
2022/06/26 08:44:56;;;;;;;0.40;0.40;;;;;;;;;;5007873;28;20092;-85
2022/06/26 08:47:23;;;;;;;0.15;0.15;;;;;;;;;;5028594;28;20038;-83
2022/06/26 08:49:49;;;;;;;0.40;0.40;;;;;;;;;;4996399;28;20440;-84
2022/06/26 08:52:22;;;;;;;0.38;0.38;;;;;;;;;;5010814;28;20032;-86
2022/06/26 08:54:53;;;;;;;0.82;0.63;;;;;;;;;;5014277;28;20017;-86
2022/06/26 08:57:19;;;;;;;0.43;0.43;;;;;;;;;;5010137;28;20022;-87
2022/06/26 08:59:47;;;;;;;0.15;0.15;;;;;;;;;;5014982;28;20410;-85
2022/06/26 09:02:12;;;;;;;0.40;0.40;;;;;;;;;;5015528;28;20073;-87
2022/06/26 09:05:05;;;;;;;0.30;0.30;;;;;;;;;;5015921;28;20101;-86
2022/06/26 09:07:42;;;;;;;0.82;0.68;;;;;;;;;;5003419;28;20038;-87
2022/06/26 09:10:09;;;;;;;1.55;0.93;;;;;;;;;;5037584;28;20021;-83
2022/06/26 09:12:39;;;;;;;1.30;0.52;;;;;;;;;;4995995;28;20041;-84
2022/06/26 09:15:05;;;;;;;0.65;0.60;;;;;;;;;;5009962;28;20582;-86
2022/06/26 09:17:30;;;;;;;1.10;1.00;;;;;;;;;;5012745;28;20065;-82
2022/06/26 09:19:58;;;;;;;0.55;0.50;;;;;;;;;;5009740;28;20112;-86
2022/06/26 09:22:23;;;;;;;0.30;0.30;;;;;;;;;;5011734;28;20026;-83
2022/06/26 09:24:57;;;;;;;0.57;0.57;;;;;;;;;;5009879;28;20097;-84
2022/06/26 09:27:22;;;;;;;1.13;1.02;;;;;;;;;;5012163;28;20099;-86
2022/06/26 09:30:32;;;;;;;0.68;0.68;;;;;;;;;;5010697;28;20030;-83
2022/06/26 09:32:57;;;;;;;3.38;1.00;;;;;;;;;;5013851;28;20034;-84
2022/06/26 09:35:25;;;;;;;0.73;0.47;;;;;;;;;;5013562;28;20030;-84
2022/06/26 09:37:50;;;;;;;0.30;0.30;;;;;;;;;;5012150;28;20037;-85
2022/06/26 09:40:17;;;;;;;0.35;0.30;;;;;;;;;;5013065;28;20044;-84
2022/06/26 09:42:43;;;;;;;0.43;0.43;;;;;;;;;;5011085;28;20113;-83
2022/06/26 09:45:09;;;;;;;0.68;0.68;;;;;;;;;;4998071;28;20112;-86
2022/06/26 09:51:05;;;;;;;0.95;0.73;;;;;;;;;;5012477;28;20076;-84
2022/06/26 09:53:31;;;;;;;0.77;0.77;;;;;;;;;;5010803;28;20145;-83
2022/06/26 09:55:58;;;;;;;0.10;0.10;;;;;;;;;;5014116;28;20109;-84
2022/06/26 09:58:24;;;;;;;0.10;0.10;;;;;;;;;;4994640;28;20107;-84
2022/06/26 10:06:52;;;;;;;0.40;0.30;;;;;;;;;;5004537;28;20049;-83
2022/06/26 10:09:26;;;;;;;0.68;0.43;;;;;;;;;;5008561;28;21188;-83
2022/06/26 10:11:59;;;;;;;0.20;0.20;;;;;;;;;;4990193;28;20026;-85
2022/06/26 10:14:35;;;;;;;0.30;0.28;;;;;;;;;;5007226;28;20121;-85
2022/06/26 10:17:31;;;;;;;0.30;0.30;;;;;;;;;;4993563;28;20017;-85
2022/06/26 10:20:28;;;;;;;0.70;0.52;;;;;;;;;;5009713;28;20034;-84
2022/06/26 10:23:02;;;;;;;0.10;0.10;;;;;;;;;;4993496;28;20046;-84
2022/06/26 10:25:40;;;;;;;0.30;0.30;;;;;;;;;;5007193;28;20099;-84
2022/06/26 10:28:08;;;;;;;0.43;0.43;;;;;;;;;;4993074;28;20454;-85
2022/06/26 10:30:33;;;;;;;0.88;0.60;;;;;;;;;;5001530;28;20030;-84
2022/06/26 10:33:09;;;;;;;0.93;0.85;;;;;;;;;;4997559;28;20103;-85
2022/06/26 10:36:07;;;;;;;0.20;0.20;;;;;;;;;;5009087;28;20029;-79
2022/06/26 10:38:52;;;;;;;0.20;0.20;;;;;;;;;;5000967;28;20056;-87
2022/06/26 10:44:17;;;;;;;0.47;0.47;;;;;;;;;;5012656;28;20036;-84
2022/06/26 10:46:47;;;;;;;0.10;0.10;;;;;;;;;;5007959;28;20022;-82
2022/06/26 10:49:25;;;;;;;0.30;0.30;;;;;;;;;;5007429;28;20026;-82
2022/06/26 10:51:59;;;;;;;0.10;0.10;;;;;;;;;;4989887;28;20041;-83
2022/06/26 10:54:33;;;;;;;0.10;0.10;;;;;;;;;;4996433;28;20344;-84
2022/06/26 10:57:01;;;;;;;0.10;0.10;;;;;;;;;;5012586;28;20036;-84
2022/06/26 10:59:27;;;;;;;0.30;0.30;;;;;;;;;;5016692;28;20393;-85
2022/06/26 11:01:52;;;;;;;0.00;0.00;;;;;;;;;;5009519;28;20056;-84
2022/06/26 11:04:23;;;;;;;0.25;0.10;;;;;;;;;;5015885;28;20403;-81
2022/06/26 11:06:52;;;;;;;0.05;0.05;;;;;;;;;;5025786;28;20032;-83
2022/06/26 11:09:20;;;;;;;0.57;0.52;;;;;;;;;;5013570;28;20029;-82
2022/06/26 11:11:51;;;;;;;0.20;0.20;;;;;;;;;;5013003;28;20026;-84
2022/06/26 11:14:16;;;;;;;0.22;0.22;;;;;;;;;;4997343;28;20021;-84
2022/06/26 11:16:46;;;;;;;0.10;0.10;;;;;;;;;;5017976;28;20036;-85
2022/06/26 11:19:24;;;;;;;0.08;0.08;;;;;;;;;;5000821;28;20030;-84
2022/06/26 11:21:49;;;;;;;0.38;0.20;;;;;;;;;;4996588;28;20026;-85
2022/06/26 11:24:17;;;;;;;0.40;0.40;;;;;;;;;;5013425;28;20447;-86
2022/06/26 11:26:44;;;;;;;0.52;0.30;;;;;;;;;;5007508;28;20505;-88
2022/06/26 11:29:09;;;;;;;0.13;0.13;;;;;;;;;;4990220;28;20156;-86
2022/06/26 11:31:38;;;;;;;0.00;0.00;;;;;;;;;;5003434;28;20117;-86
2022/06/26 11:34:12;;;;;;;0.30;0.30;;;;;;;;;;4994541;28;20037;-86
2022/06/26 11:36:54;;;;;;;0.10;0.10;;;;;;;;;;5022856;28;20026;-84
2022/06/26 11:39:24;;;;;;;0.22;0.22;;;;;;;;;;4995219;28;20445;-85
2022/06/26 11:41:50;;;;;;;0.10;0.10;;;;;;;;;;5011081;28;20035;-83
2022/06/26 11:44:15;;;;;;;0.60;0.28;;;;;;;;;;5014495;28;20065;-82
2022/06/26 11:46:44;;;;;;;0.50;0.50;;;;;;;;;;5014977;28;20371;-84
2022/06/26 11:49:12;;;;;;;0.30;0.30;;;;;;;;;;5015542;28;20042;-86
2022/06/26 11:52:29;;;;;;;0.70;0.30;;;;;;;;;;4993926;28;20049;-86
2022/06/26 11:54:59;;;;;;;0.40;0.30;;;;;;;;;;4987220;28;20381;-86
2022/06/26 11:57:24;;;;;;;0.57;0.57;;;;;;;;;;4995369;28;20030;-83
2022/06/26 11:59:52;;;;;;;0.52;0.45;;;;;;;;;;4995472;28;20084;-82
2022/06/26 12:02:24;;;;;;;0.43;0.43;;;;;;;;;;4978437;28;20435;-84
2022/06/26 12:05:01;;;;;;;0.10;0.10;;;;;;;;;;4996913;28;20081;-78
2022/06/26 12:10:59;;;;;;;0.20;0.20;;;;;;;;;;4898848;29;20033;-85
2022/06/26 12:13:39;;;;;;;0.30;0.30;;;;;;;;;;4886018;29;20036;-85
2022/06/26 12:16:07;;;;;;;0.22;0.20;;;;;;;;;;4866422;29;20032;-83
2022/06/26 12:18:39;;;;;;;0.55;0.52;;;;;;;;;;4897242;29;20146;-83
2022/06/26 12:21:18;;;;;;;0.82;0.32;;;;;;;;;;4886868;29;20076;-84
2022/06/26 12:23:45;;;;;;;0.28;0.28;;;;;;;;;;4882375;29;20052;-83
2022/06/26 12:26:12;;;;;;;0.57;0.25;;;;;;;;;;4897924;29;20032;-83
2022/06/26 12:28:54;;;;;;;7.97;0.35;;;;;;;;;;4880885;29;20780;-84
2022/06/26 12:31:20;;;;;;;0.20;0.20;;;;;;;;;;4889172;29;20059;-84
2022/06/26 12:33:47;;;;;;;0.30;0.30;;;;;;;;;;4902018;29;20036;-80
2022/06/26 12:36:13;;;;;;;0.22;0.22;;;;;;;;;;4919249;29;20095;-83
2022/06/26 12:38:39;;;;;;;0.40;0.40;;;;;;;;;;4916253;29;20047;-82
2022/06/26 12:41:16;;;;;;;0.90;0.30;;;;;;;;;;4918706;29;20132;-85
2022/06/26 12:43:59;;;;;;;0.22;0.22;;;;;;;;;;4913620;29;20107;-85
2022/06/26 12:46:35;;;;;;;0.47;0.40;;;;;;;;;;4916761;28;20120;-84
2022/06/26 12:49:03;;;;;;;0.80;0.20;;;;;;;;;;5014750;28;20028;-84
2022/06/26 12:51:32;;;;;;;0.28;0.28;;;;;;;;;;5014237;28;20455;-85
2022/06/26 12:53:57;;;;;;;0.75;0.55;;;;;;;;;;5003399;28;20356;-83
2022/06/26 12:56:25;;;;;;;0.98;0.50;;;;;;;;;;5013777;28;20045;-82
2022/06/26 12:58:52;;;;;;;0.90;0.70;;;;;;;;;;5012367;28;20379;-82
2022/06/26 13:01:37;;;;;;;0.10;0.10;;;;;;;;;;5021823;28;20021;-83
2022/06/26 13:07:34;;;;;;;0.28;0.28;;;;;;;;;;4974338;28;20248;-84
2022/06/26 13:09:59;;;;;;;0.30;0.30;;;;;;;;;;4949658;28;20333;-84
2022/06/26 13:12:31;;;;;;;0.68;0.55;;;;;;;;;;4989474;28;20282;-81
2022/06/26 13:15:03;;;;;;;1.03;0.93;;;;;;;;;;5011283;28;20459;-83
2022/06/26 13:17:29;;;;;;;0.93;0.63;;;;;;;;;;4994218;28;20030;-83
2022/06/26 13:19:57;;;;;;;1.05;0.98;;;;;;;;;;4988278;28;20041;-84
2022/06/26 13:22:24;;;;;;;0.30;0.30;;;;;;;;;;5014065;28;20649;-83
2022/06/26 13:24:49;;;;;;;1.02;0.47;;;;;;;;;;4999072;28;20036;-84
2022/06/26 13:27:18;;;;;;;0.80;0.40;;;;;;;;;;5012937;28;20609;-85
2022/06/26 13:29:46;;;;;;;0.47;0.40;;;;;;;;;;5006635;28;20025;-85
2022/06/26 13:32:11;;;;;;;0.30;0.30;;;;;;;;;;5018719;28;20034;-80
2022/06/26 13:34:36;;;;;;;0.17;0.17;;;;;;;;;;5012120;28;20032;-83
2022/06/26 13:37:06;;;;;;;0.47;0.22;;;;;;;;;;5021319;28;20026;-84
2022/06/26 13:39:34;;;;;;;0.22;0.22;;;;;;;;;;5016115;28;20030;-83
2022/06/26 13:42:00;;;;;;;0.47;0.30;;;;;;;;;;5014362;28;20110;-83
2022/06/26 13:44:25;;;;;;;0.28;0.28;;;;;;;;;;5012846;28;20120;-83
2022/06/26 13:46:55;;;;;;;1.58;0.93;;;;;;;;;;5020682;28;20490;-78
2022/06/26 13:49:20;;;;;;;0.30;0.30;;;;;;;;;;5020349;28;20041;-80
2022/06/26 13:51:48;;;;;;;1.48;0.50;;;;;;;;;;5008360;28;20057;-80
2022/06/26 13:54:16;;;;;;;0.57;0.50;;;;;;;;;;5024227;28;20574;-82
2022/06/26 13:56:41;;;;;;;0.52;0.52;;;;;;;;;;5024579;28;20121;-79
2022/06/26 13:59:13;;;;;;;1.00;0.47;;;;;;;;;;5018633;28;20100;-79
2022/06/26 14:01:40;;;;;;;0.80;0.53;;;;;;;;;;5019322;28;20025;-79
2022/06/26 14:04:05;;;;;;;0.30;0.30;;;;;;;;;;5020803;28;20053;-79
2022/06/26 14:06:36;;;;;;;0.57;0.40;;;;;;;;;;5019132;28;20054;-81
2022/06/26 14:09:02;;;;;;;0.65;0.25;;;;;;;;;;5012331;28;20097;-82
2022/06/26 14:11:27;;;;;;;0.20;0.20;;;;;;;;;;5020880;28;20128;-81
2022/06/26 14:13:52;;;;;;;0.93;0.85;;;;;;;;;;5024500;28;20025;-83
2022/06/26 14:16:18;;;;;;;0.45;0.20;;;;;;;;;;5020908;28;20105;-82
2022/06/26 14:18:43;;;;;;;0.45;0.32;;;;;;;;;;5021879;28;20025;-81
2022/06/26 14:21:09;;;;;;;0.93;0.50;;;;;;;;;;5016757;28;20095;-82
2022/06/26 14:26:39;;;;;;;0.43;0.30;;;;;;;;;;5019596;28;20091;-82
2022/06/26 14:29:10;;;;;;;0.45;0.45;;;;;;;;;;5021457;28;20486;-82
2022/06/26 14:31:35;;;;;;;1.50;0.50;;;;;;;;;;5016982;28;20639;-80
2022/06/26 14:34:04;;;;;;;1.73;0.88;;;;;;;;;;5022140;28;20026;-82
2022/06/26 14:36:32;;;;;;;0.10;0.10;;;;;;;;;;5017346;28;20358;-81
2022/06/26 14:39:00;;;;;;;1.67;0.65;;;;;;;;;;5003878;28;20034;-81
2022/06/26 14:41:28;;;;;;;0.28;0.28;;;;;;;;;;5012295;28;20047;-80
2022/06/26 14:43:53;;;;;;;0.20;0.20;;;;;;;;;;5012021;28;20080;-81
2022/06/26 14:46:31;;;;;;;0.20;0.20;;;;;;;;;;5014332;28;20025;-81
2022/06/26 14:48:59;;;;;;;0.52;0.40;;;;;;;;;;4997643;28;20030;-81
2022/06/26 14:51:31;;;;;;;0.10;0.10;;;;;;;;;;5011773;28;20057;-82
2022/06/26 14:53:56;;;;;;;0.30;0.30;;;;;;;;;;5014100;28;20057;-79
2022/06/26 14:56:23;;;;;;;0.98;0.52;;;;;;;;;;4989258;28;20329;-79
2022/06/26 14:59:03;;;;;;;1.85;0.40;;;;;;;;;;4992424;28;20081;-81
2022/06/26 15:01:35;;;;;;;1.15;0.57;;;;;;;;;;5001361;28;20458;-81
2022/06/26 15:04:00;;;;;;;15.25;1.00;;;;;;;;;;4994205;28;20180;-80
2022/06/26 15:06:28;;;;;;;0.57;0.50;;;;;;;;;;5012199;28;20112;-80
2022/06/26 15:08:53;;;;;;;0.30;0.30;;;;;;;;;;5006950;28;20026;-81
2022/06/26 15:11:50;;;;;;;0.10;0.10;;;;;;;;;;5008916;28;20348;-80
2022/06/26 15:14:21;;;;;;;0.30;0.28;;;;;;;;;;5010395;28;20089;-81
2022/06/26 15:17:19;;;;;;;0.60;0.53;;;;;;;;;;5011596;28;20026;-80